Terminal Aerodrome Forecast
Issued by NWS

Home | Current Version | Previous Version | Text Only | Print | Product List | Glossary On
Versions: 1 2 3 4 5 6 7 8 9 10 11 12 13 14 15 16 17 18 19 20 21 22 23 24 25 26 27 28 29 30 31 32 33 34 35 36 37 38 39 40 41 42 43 44 45 46 47
093
FTUS44 KBMX 171120
TAFASN
TAF
KASN 171120Z 1712/1812 00000KT P6SM SCT150 BKN250
     FM171800 05005KT 6SM -RA BR OVC025
     FM172300 06003KT 5SM -RA BR OVC015
     FM180200 05003KT 5SM BR OVC007
     FM181000 10001KT 1SM BR OVC002=

USA.gov is the U.S. government's official web portal to all federal, state and local government web resources and services.